Time;durP1;ratioP1;P1;durP2;ratioP2;P2;SDS_P1;SDS_P2;PMS_P1;PMS_P2;Temp;Humidity;BMP_temperature;BMP_pressure;BME280_temperature;BME280_humidity;BME280_pressure;Samples;Min_cycle;Max_cycle;Signal;HPM_P1;HPM_P2
2021/08/21 00:00:34;;;;;;;14.52;10.50;;;16.90;89.60;;;;;;5055397;28;20035;-81
2021/08/21 00:03:00;;;;;;;14.23;10.70;;;16.90;89.50;;;;;;5073489;28;20033;-82
2021/08/21 00:05:26;;;;;;;12.95;10.68;;;16.90;89.40;;;;;;5055463;28;20408;-81
2021/08/21 00:07:51;;;;;;;12.88;10.82;;;16.90;89.40;;;;;;5037941;28;20074;-80
2021/08/21 00:10:17;;;;;;;13.98;10.43;;;16.90;89.40;;;;;;5063674;28;20022;-81
2021/08/21 00:12:43;;;;;;;13.63;11.70;;;16.80;89.30;;;;;;5049505;28;20036;-81
2021/08/21 00:15:11;;;;;;;15.80;11.57;;;16.80;89.30;;;;;;5034713;28;20035;-81
2021/08/21 00:17:38;;;;;;;14.80;12.15;;;16.80;89.50;;;;;;5053393;28;20033;-81
2021/08/21 00:20:05;;;;;;;12.93;11.20;;;16.80;89.60;;;;;;5020576;28;20511;-81
2021/08/21 00:22:31;;;;;;;19.17;12.45;;;16.70;89.70;;;;;;5030386;28;20082;-81
2021/08/21 00:24:56;;;;;;;17.75;12.43;;;16.70;89.70;;;;;;5035435;28;20040;-81
2021/08/21 00:27:25;;;;;;;16.20;11.75;;;16.70;89.80;;;;;;5054080;28;20067;-81
2021/08/21 00:29:51;;;;;;;14.75;11.80;;;16.70;89.80;;;;;;5052907;28;20029;-81
2021/08/21 00:32:17;;;;;;;19.48;12.32;;;16.60;89.80;;;;;;5069554;28;20025;-81
2021/08/21 00:34:43;;;;;;;16.63;12.43;;;16.60;89.90;;;;;;5055810;28;20042;-81
2021/08/21 00:37:08;;;;;;;17.20;11.50;;;16.60;90.00;;;;;;5050166;28;20587;-81
2021/08/21 00:39:34;;;;;;;15.25;12.48;;;16.70;90.00;;;;;;5042026;28;20392;-81
2021/08/21 00:42:00;;;;;;;16.38;12.48;;;16.60;90.00;;;;;;5037991;28;20029;-81
2021/08/21 00:44:26;;;;;;;21.30;12.43;;;16.60;90.00;;;;;;5058031;28;20067;-81
2021/08/21 00:47:05;;;;;;;16.35;11.73;;;16.60;90.10;;;;;;5048425;28;20091;-81
2021/08/21 00:49:36;;;;;;;14.95;11.90;;;16.60;90.20;;;;;;5048239;28;20424;-81
2021/08/21 00:52:04;;;;;;;16.15;12.00;;;16.60;90.20;;;;;;5040728;28;20041;-82
2021/08/21 00:54:30;;;;;;;24.90;12.63;;;16.60;90.20;;;;;;5031390;28;20026;-81
2021/08/21 00:56:59;;;;;;;13.10;11.43;;;16.60;90.20;;;;;;5047768;28;20083;-81
2021/08/21 00:59:25;;;;;;;14.88;11.63;;;16.60;90.30;;;;;;5048761;28;20052;-81
2021/08/21 01:01:51;;;;;;;14.68;11.77;;;16.60;90.30;;;;;;5027642;28;20438;-81
2021/08/21 01:04:18;;;;;;;15.30;11.32;;;16.60;90.30;;;;;;5042397;28;20053;-81
2021/08/21 01:06:43;;;;;;;16.85;11.18;;;16.60;90.30;;;;;;5051447;28;20587;-81
2021/08/21 01:09:09;;;;;;;14.27;11.57;;;16.70;90.40;;;;;;5018487;28;20037;-81
2021/08/21 01:11:35;;;;;;;16.02;11.55;;;16.70;90.40;;;;;;5027318;28;20025;-81
2021/08/21 01:14:01;;;;;;;13.93;10.50;;;16.70;90.40;;;;;;5048406;28;20421;-81
2021/08/21 01:16:27;;;;;;;14.88;11.15;;;16.70;90.50;;;;;;5038605;28;20029;-81
2021/08/21 01:18:53;;;;;;;12.02;10.55;;;16.70;90.50;;;;;;5039020;28;20040;-81
2021/08/21 01:21:20;;;;;;;14.48;10.60;;;16.70;90.50;;;;;;5059338;28;20385;-81
2021/08/21 01:23:46;;;;;;;14.65;11.77;;;16.80;90.50;;;;;;5038940;28;20033;-81
2021/08/21 01:26:12;;;;;;;14.18;11.40;;;16.80;90.50;;;;;;5035544;28;20154;-81
2021/08/21 01:28:39;;;;;;;13.48;11.73;;;16.80;90.50;;;;;;5036476;28;20116;-81
2021/08/21 01:31:06;;;;;;;15.05;11.82;;;16.80;90.60;;;;;;5053856;28;20029;-81
2021/08/21 01:33:36;;;;;;;17.05;11.15;;;16.80;90.60;;;;;;5070543;28;20045;-81
2021/08/21 01:36:03;;;;;;;13.38;11.07;;;16.80;90.70;;;;;;5047955;28;20072;-81
2021/08/21 01:38:29;;;;;;;14.95;10.73;;;16.80;90.60;;;;;;5036373;28;20025;-81
2021/08/21 01:40:55;;;;;;;14.93;10.88;;;16.70;90.60;;;;;;5050096;28;20047;-81
2021/08/21 01:43:21;;;;;;;14.77;11.05;;;16.80;90.60;;;;;;5056257;28;20021;-81
2021/08/21 01:45:48;;;;;;;15.82;11.23;;;16.80;90.60;;;;;;5049984;28;20040;-81
2021/08/21 01:48:15;;;;;;;15.25;11.55;;;16.80;90.60;;;;;;5036469;28;20033;-81
2021/08/21 01:50:40;;;;;;;14.50;11.57;;;16.80;90.70;;;;;;5027641;28;20033;-81
2021/08/21 01:53:11;;;;;;;16.33;12.18;;;16.80;90.70;;;;;;5035436;28;20476;-81
2021/08/21 01:55:37;;;;;;;14.57;11.18;;;16.70;90.70;;;;;;5055321;28;20009;-81
2021/08/21 01:58:03;;;;;;;15.55;11.10;;;16.70;90.70;;;;;;5072326;28;20639;-81
2021/08/21 02:00:28;;;;;;;15.75;11.90;;;16.70;90.80;;;;;;5046464;28;20037;-81
2021/08/21 02:02:55;;;;;;;18.83;12.60;;;16.70;90.80;;;;;;5050796;28;20041;-81
2021/08/21 02:05:21;;;;;;;21.10;12.77;;;16.70;90.80;;;;;;5054611;28;20099;-81
2021/08/21 02:07:48;;;;;;;15.70;12.40;;;16.60;90.80;;;;;;5053207;28;20106;-81
2021/08/21 02:10:14;;;;;;;18.17;12.77;;;16.60;90.80;;;;;;5066741;28;20033;-81
2021/08/21 02:12:40;;;;;;;19.55;13.30;;;16.60;90.80;;;;;;5036096;28;20060;-81
2021/08/21 02:15:11;;;;;;;19.80;13.77;;;16.60;90.80;;;;;;5057863;28;20050;-81
2021/08/21 02:17:37;;;;;;;17.48;13.43;;;16.50;90.90;;;;;;5037762;28;20026;-81
2021/08/21 02:20:11;;;;;;;16.27;12.35;;;16.50;90.90;;;;;;5067244;28;20048;-81
2021/08/21 02:22:36;;;;;;;18.75;12.65;;;16.50;90.90;;;;;;5049895;28;20032;-82
2021/08/21 02:25:04;;;;;;;16.88;11.75;;;16.50;91.00;;;;;;5041676;28;20470;-81
2021/08/21 02:27:36;;;;;;;18.20;13.25;;;16.50;91.00;;;;;;5061376;28;20115;-81
2021/08/21 02:30:03;;;;;;;16.63;12.05;;;16.50;91.00;;;;;;5038605;28;20034;-81
2021/08/21 02:32:28;;;;;;;18.05;12.93;;;16.50;91.00;;;;;;5027204;28;20394;-81
2021/08/21 02:34:54;;;;;;;17.23;12.25;;;16.50;91.00;;;;;;5045604;28;20028;-81
2021/08/21 02:37:20;;;;;;;18.95;11.88;;;16.50;91.00;;;;;;5073968;28;20037;-81
2021/08/21 02:39:45;;;;;;;18.45;12.55;;;16.50;90.90;;;;;;5066401;28;20041;-81
2021/08/21 02:42:11;;;;;;;12.82;10.73;;;16.50;90.90;;;;;;5070730;28;20102;-81
2021/08/21 02:44:37;;;;;;;16.67;12.60;;;16.40;90.90;;;;;;5064512;28;20056;-81
2021/08/21 02:47:04;;;;;;;14.60;11.13;;;16.40;90.90;;;;;;5069223;28;20021;-81
2021/08/21 02:49:29;;;;;;;17.48;11.93;;;16.40;90.90;;;;;;5074895;28;20082;-80
2021/08/21 02:51:55;;;;;;;17.73;12.77;;;16.40;91.00;;;;;;5050444;28;20423;-81
2021/08/21 02:54:21;;;;;;;19.05;13.38;;;16.40;91.10;;;;;;5047878;28;20044;-81
2021/08/21 02:56:46;;;;;;;15.10;11.57;;;16.40;91.20;;;;;;5036000;28;20082;-81
2021/08/21 02:59:12;;;;;;;17.05;12.32;;;16.40;91.20;;;;;;5053298;28;20055;-81
2021/08/21 03:01:37;;;;;;;15.77;12.32;;;16.30;91.30;;;;;;5062281;28;20028;-81
2021/08/21 03:04:03;;;;;;;15.05;11.27;;;16.40;91.30;;;;;;5074354;28;20032;-81
2021/08/21 03:06:29;;;;;;;15.68;11.45;;;16.40;91.40;;;;;;5046373;28;20036;-81
2021/08/21 03:08:54;;;;;;;18.08;12.10;;;16.40;91.40;;;;;;5059578;28;20032;-81
2021/08/21 03:11:20;;;;;;;14.85;11.63;;;16.40;91.40;;;;;;5061365;28;20381;-81
2021/08/21 03:13:45;;;;;;;14.82;11.55;;;16.40;91.50;;;;;;5038397;28;20033;-81
2021/08/21 03:16:11;;;;;;;17.08;11.45;;;16.40;91.50;;;;;;5019638;28;20111;-81
2021/08/21 03:18:37;;;;;;;15.63;11.23;;;16.50;91.50;;;;;;5048380;28;20886;-81
2021/08/21 03:21:02;;;;;;;15.60;12.68;;;16.50;91.50;;;;;;5073151;28;20036;-81
2021/08/21 03:23:28;;;;;;;20.27;12.05;;;16.50;91.50;;;;;;5064900;28;20040;-81
2021/08/21 03:25:53;;;;;;;14.18;11.85;;;16.50;91.50;;;;;;5043516;28;20470;-81
2021/08/21 03:28:19;;;;;;;16.30;12.48;;;16.50;91.60;;;;;;5052743;28;20032;-81
2021/08/21 03:30:45;;;;;;;19.77;13.15;;;16.50;91.60;;;;;;5056664;28;20044;-81
2021/08/21 03:33:10;;;;;;;15.15;11.65;;;16.60;91.60;;;;;;5059186;28;20058;-81
2021/08/21 03:35:36;;;;;;;15.68;11.52;;;16.60;91.70;;;;;;5032997;28;20021;-81
2021/08/21 03:38:02;;;;;;;16.98;12.00;;;16.50;91.70;;;;;;5032173;28;20029;-81
2021/08/21 03:40:27;;;;;;;16.08;13.27;;;16.50;91.70;;;;;;5037216;28;20063;-81
2021/08/21 03:42:53;;;;;;;18.10;12.80;;;16.60;91.70;;;;;;5042590;28;20037;-81
2021/08/21 03:45:19;;;;;;;17.63;11.40;;;16.60;91.70;;;;;;5035621;28;20072;-81
2021/08/21 03:47:47;;;;;;;15.43;11.43;;;16.60;91.70;;;;;;5038916;28;20037;-81
2021/08/21 03:50:12;;;;;;;15.45;11.93;;;16.60;91.70;;;;;;5016148;28;20022;-81
2021/08/21 03:52:38;;;;;;;16.70;12.77;;;16.60;91.70;;;;;;5047072;28;20033;-81
2021/08/21 03:55:04;;;;;;;20.13;12.98;;;16.60;91.70;;;;;;5049100;28;20025;-81
2021/08/21 03:57:30;;;;;;;15.05;11.90;;;16.60;91.70;;;;;;5045636;28;20026;-81
2021/08/21 03:59:56;;;;;;;16.15;11.68;;;16.60;91.70;;;;;;5041235;28;20035;-81
2021/08/21 04:02:21;;;;;;;18.23;11.50;;;16.60;91.70;;;;;;5051991;28;20043;-81
2021/08/21 04:04:47;;;;;;;15.65;11.25;;;16.60;91.70;;;;;;5052754;28;20036;-81
2021/08/21 04:07:18;;;;;;;15.10;12.40;;;16.60;91.70;;;;;;5052213;28;20525;-81
2021/08/21 04:09:44;;;;;;;19.40;12.65;;;16.60;91.80;;;;;;5051661;28;20033;-81
2021/08/21 04:12:10;;;;;;;15.70;12.32;;;16.60;91.80;;;;;;5050937;28;20033;-81
2021/08/21 04:14:36;;;;;;;17.23;13.90;;;16.50;91.70;;;;;;5053403;28;20481;-81
2021/08/21 04:17:02;;;;;;;17.05;13.38;;;16.50;91.80;;;;;;5049329;28;20035;-81
2021/08/21 04:19:27;;;;;;;16.27;12.88;;;16.50;91.80;;;;;;5045882;28;20052;-81
2021/08/21 04:21:53;;;;;;;17.58;12.65;;;16.60;91.80;;;;;;5040962;28;20041;-81
2021/08/21 04:24:18;;;;;;;15.48;12.18;;;16.50;92.10;;;;;;5053256;28;20025;-81
2021/08/21 04:26:44;;;;;;;18.15;12.88;;;16.50;91.90;;;;;;5038469;28;20056;-81
2021/08/21 04:29:13;;;;;;;17.70;12.35;;;16.60;91.90;;;;;;5035103;28;20068;-81
2021/08/21 04:31:39;;;;;;;;;;;16.60;91.80;;;;;;5051673;28;20068;-81
2021/08/21 04:34:04;;;;;;;19.98;11.45;;;16.50;91.70;;;;;;5045836;28;19959;-81
2021/08/21 04:36:30;;;;;;;13.73;11.18;;;16.60;91.90;;;;;;5048440;28;20028;-81
2021/08/21 04:38:55;;;;;;;18.38;11.75;;;16.50;91.90;;;;;;5064013;28;20461;-81
2021/08/21 04:41:21;;;;;;;16.55;11.35;;;16.60;91.80;;;;;;5047988;28;20021;-81
2021/08/21 04:43:47;;;;;;;14.30;11.10;;;16.60;91.80;;;;;;5030253;28;20840;-81
2021/08/21 04:46:12;;;;;;;20.88;12.23;;;16.50;91.80;;;;;;5061772;28;20374;-81
2021/08/21 04:48:38;;;;;;;16.83;11.57;;;16.50;91.80;;;;;;5064842;28;20037;-81
2021/08/21 04:51:04;;;;;;;16.50;12.18;;;16.50;91.80;;;;;;5047653;28;20037;-81
2021/08/21 04:53:29;;;;;;;14.55;11.55;;;16.50;91.80;;;;;;5060110;28;20048;-81
2021/08/21 04:55:55;;;;;;;15.75;10.82;;;16.50;91.80;;;;;;5064293;28;20037;-81
2021/08/21 04:58:21;;;;;;;16.42;12.05;;;16.50;91.80;;;;;;5023660;28;20915;-81
2021/08/21 05:00:46;;;;;;;20.02;12.27;;;16.40;91.70;;;;;;5056134;28;20032;-81
2021/08/21 05:03:12;;;;;;;13.85;11.07;;;16.40;91.70;;;;;;5040150;28;20029;-81
2021/08/21 05:05:37;;;;;;;15.55;11.23;;;16.40;91.70;;;;;;5077017;28;20028;-81
2021/08/21 05:08:03;;;;;;;14.45;11.48;;;16.40;91.80;;;;;;5075528;28;20032;-81
2021/08/21 05:10:29;;;;;;;14.13;11.57;;;16.40;91.80;;;;;;5058256;28;20036;-81
2021/08/21 05:12:55;;;;;;;20.55;12.32;;;16.40;91.70;;;;;;5041264;28;20032;-81
2021/08/21 05:15:21;;;;;;;15.85;12.82;;;16.40;91.80;;;;;;5058865;28;20051;-81
2021/08/21 05:17:48;;;;;;;16.30;11.68;;;16.40;91.80;;;;;;5061552;28;20040;-81
2021/08/21 05:20:18;;;;;;;14.63;11.05;;;16.40;91.90;;;;;;5028836;28;20029;-81
2021/08/21 05:25:12;;;;;;;19.75;12.80;;;16.40;91.80;;;;;;5075758;28;20107;-81
2021/08/21 05:27:38;;;;;;;19.48;11.90;;;16.50;91.90;;;;;;5071769;28;20070;-81
2021/08/21 05:30:05;;;;;;;19.92;11.70;;;16.40;91.80;;;;;;5056184;28;20108;-81
2021/08/21 05:32:32;;;;;;;21.70;12.43;;;16.50;91.90;;;;;;5067587;28;20037;-81
2021/08/21 05:34:58;;;;;;;17.00;12.73;;;16.50;91.90;;;;;;5075327;28;20032;-81
2021/08/21 05:37:24;;;;;;;16.33;12.68;;;16.50;91.90;;;;;;5039037;28;20187;-81
2021/08/21 05:39:50;;;;;;;17.38;12.88;;;16.50;91.90;;;;;;5073126;28;20107;-81
2021/08/21 05:42:15;;;;;;;20.17;12.70;;;16.50;91.90;;;;;;5073759;28;20123;-81
2021/08/21 05:44:41;;;;;;;16.70;12.32;;;16.50;91.90;;;;;;5054553;28;20481;-81
2021/08/21 05:47:07;;;;;;;12.68;11.13;;;16.50;91.90;;;;;;5069381;28;20032;-81
2021/08/21 05:49:33;;;;;;;15.23;12.02;;;16.50;91.90;;;;;;5072179;28;20086;-81
2021/08/21 05:51:58;;;;;;;21.92;14.20;;;16.50;91.90;;;;;;5054802;28;20119;-81
2021/08/21 05:54:24;;;;;;;15.88;13.63;;;16.60;92.00;;;;;;5054842;28;20032;-80
2021/08/21 05:56:49;;;;;;;18.63;12.15;;;16.60;92.00;;;;;;5039009;28;20025;-80
2021/08/21 05:59:15;;;;;;;18.80;13.35;;;16.60;92.00;;;;;;5074507;28;20067;-80
2021/08/21 06:01:41;;;;;;;15.52;11.52;;;16.60;92.00;;;;;;5040280;28;20033;-80
2021/08/21 06:04:06;;;;;;;14.35;11.40;;;16.60;92.00;;;;;;5075076;28;20032;-80
2021/08/21 06:06:36;;;;;;;15.68;12.02;;;16.60;92.00;;;;;;5070653;28;20095;-80
2021/08/21 06:09:02;;;;;;;15.68;12.50;;;16.70;92.10;;;;;;5038043;28;20061;-80
2021/08/21 06:11:28;;;;;;;19.58;13.02;;;16.70;92.10;;;;;;5055372;28;20033;-80
2021/08/21 06:13:53;;;;;;;16.70;12.55;;;16.80;92.10;;;;;;5064299;28;20032;-80
2021/08/21 06:16:19;;;;;;;17.50;13.40;;;16.80;92.00;;;;;;5072303;28;20032;-81
2021/08/21 06:18:44;;;;;;;17.90;13.35;;;16.90;92.00;;;;;;5077190;28;20028;-80
2021/08/21 06:21:10;;;;;;;17.73;13.50;;;17.00;92.00;;;;;;5073742;28;20059;-80
2021/08/21 06:23:36;;;;;;;17.30;13.43;;;17.10;91.90;;;;;;5041826;28;20033;-81
2021/08/21 06:26:01;;;;;;;15.95;12.65;;;17.20;91.80;;;;;;5054344;28;20111;-81
2021/08/21 06:28:27;;;;;;;20.80;13.38;;;17.20;91.80;;;;;;5070243;28;20033;-81
2021/08/21 06:30:52;;;;;;;14.18;12.43;;;17.30;91.80;;;;;;5021296;28;20386;-81
2021/08/21 06:33:18;;;;;;;18.75;12.73;;;17.40;91.80;;;;;;5061972;28;20053;-81
2021/08/21 06:35:44;;;;;;;18.05;13.73;;;17.40;91.70;;;;;;5052692;28;20090;-81
2021/08/21 06:38:10;;;;;;;18.45;12.80;;;17.40;91.60;;;;;;5072006;28;20108;-80
2021/08/21 06:40:35;;;;;;;17.15;12.70;;;17.40;91.60;;;;;;5073846;28;20029;-80
2021/08/21 06:43:01;;;;;;;16.27;12.43;;;17.40;91.60;;;;;;5073184;28;20050;-80
2021/08/21 06:45:26;;;;;;;14.20;11.35;;;17.50;91.70;;;;;;5040118;28;20397;-80
2021/08/21 06:47:55;;;;;;;14.95;11.75;;;17.60;91.60;;;;;;5074922;28;20107;-80
2021/08/21 06:50:20;;;;;;;13.93;10.73;;;17.60;91.40;;;;;;5075026;28;20025;-80
2021/08/21 06:52:46;;;;;;;11.15;9.93;;;17.70;91.30;;;;;;5053240;28;20063;-80
2021/08/21 06:55:13;;;;;;;12.45;9.70;;;17.80;91.10;;;;;;5055038;28;20029;-80
2021/08/21 06:57:38;;;;;;;15.43;10.48;;;17.90;90.90;;;;;;5054694;28;20056;-80
2021/08/21 07:00:04;;;;;;;12.10;9.25;;;18.10;90.90;;;;;;5054788;28;20787;-80
2021/08/21 07:02:30;;;;;;;11.73;9.15;;;18.20;91.10;;;;;;5054544;28;20135;-80
2021/08/21 07:04:56;;;;;;;12.15;8.55;;;18.30;90.90;;;;;;5053278;28;20104;-79
2021/08/21 07:07:21;;;;;;;9.93;8.57;;;18.40;90.40;;;;;;5074288;28;20036;-79
2021/08/21 07:09:47;;;;;;;19.77;9.13;;;18.60;90.20;;;;;;5056601;28;20029;-80
2021/08/21 07:12:12;;;;;;;11.35;8.57;;;18.70;90.10;;;;;;5074634;28;20040;-80
2021/08/21 07:14:38;;;;;;;12.48;8.60;;;18.90;90.00;;;;;;5074490;28;20025;-80
2021/08/21 07:17:04;;;;;;;13.48;7.65;;;19.10;89.60;;;;;;5073517;28;20025;-80
2021/08/21 07:19:30;;;;;;;14.23;8.63;;;19.20;89.20;;;;;;5038994;28;20028;-81
2021/08/21 07:21:55;;;;;;;10.98;8.00;;;19.40;88.80;;;;;;5074382;28;20436;-81
2021/08/21 07:24:21;;;;;;;9.88;8.02;;;19.50;88.70;;;;;;5074204;28;20059;-81
2021/08/21 07:26:47;;;;;;;10.55;8.63;;;19.70;88.00;;;;;;5074146;28;20106;-81
2021/08/21 07:29:13;;;;;;;14.95;9.20;;;19.80;87.50;;;;;;5056037;28;20024;-81
2021/08/21 07:31:39;;;;;;;13.18;8.60;;;19.90;87.30;;;;;;5055845;28;20032;-81
2021/08/21 07:34:04;;;;;;;11.63;8.68;;;20.00;87.00;;;;;;5073972;28;20072;-81
2021/08/21 07:36:30;;;;;;;23.45;9.00;;;20.20;86.90;;;;;;5038858;28;20033;-82
2021/08/21 07:38:56;;;;;;;24.55;9.45;;;20.30;86.40;;;;;;5054664;28;20541;-83
2021/08/21 07:41:21;;;;;;;14.93;9.38;;;20.30;86.20;;;;;;5073842;28;20036;-81
2021/08/21 07:43:47;;;;;;;15.90;9.10;;;20.30;86.20;;;;;;5073688;28;20111;-82
2021/08/21 07:46:13;;;;;;;12.18;8.85;;;20.30;86.30;;;;;;5073470;28;20028;-82
2021/08/21 07:48:38;;;;;;;10.48;8.25;;;20.50;86.00;;;;;;5073352;28;20028;-81
2021/08/21 07:51:05;;;;;;;15.15;9.02;;;20.60;85.50;;;;;;5072747;28;20040;-81
2021/08/21 07:53:31;;;;;;;14.23;9.15;;;20.60;85.50;;;;;;5073106;28;20048;-83
2021/08/21 07:55:56;;;;;;;15.15;8.15;;;20.70;85.50;;;;;;5055823;28;20473;-83
2021/08/21 07:58:22;;;;;;;12.52;8.27;;;20.70;85.10;;;;;;5073662;28;20020;-83
2021/08/21 08:00:47;;;;;;;9.55;8.48;;;20.80;85.00;;;;;;5073557;28;20428;-80
2021/08/21 08:03:14;;;;;;;14.00;8.57;;;20.80;84.80;;;;;;5073145;28;20033;-80
2021/08/21 08:05:41;;;;;;;10.68;8.43;;;21.00;85.00;;;;;;5073221;28;20529;-80
2021/08/21 08:08:07;;;;;;;16.40;8.18;;;21.10;84.40;;;;;;5073517;28;20029;-80
2021/08/21 08:10:33;;;;;;;13.80;7.40;;;21.20;83.70;;;;;;5055201;28;20020;-80
2021/08/21 08:12:58;;;;;;;12.77;7.25;;;21.30;83.50;;;;;;5072750;28;20047;-82
2021/08/21 08:15:25;;;;;;;9.57;7.70;;;21.50;83.10;;;;;;5038253;28;20082;-81
2021/08/21 08:17:50;;;;;;;11.95;7.18;;;21.60;82.80;;;;;;5054785;28;20055;-81
2021/08/21 08:20:16;;;;;;;12.65;7.50;;;21.70;82.40;;;;;;5072797;28;20021;-80
2021/08/21 08:22:42;;;;;;;12.27;7.20;;;21.80;81.80;;;;;;5072756;28;20085;-80
2021/08/21 08:25:08;;;;;;;10.45;7.25;;;21.90;81.80;;;;;;5055067;28;20044;-80
2021/08/21 08:27:34;;;;;;;9.25;6.75;;;22.00;81.80;;;;;;5073148;28;20052;-80
2021/08/21 08:29:59;;;;;;;8.40;6.68;;;22.10;81.70;;;;;;5072869;28;20025;-80
2021/08/21 08:32:25;;;;;;;9.40;6.10;;;22.30;81.60;;;;;;5072949;28;20035;-80
2021/08/21 08:34:51;;;;;;;10.20;5.47;;;22.50;80.00;;;;;;5055193;28;20085;-80
2021/08/21 08:37:16;;;;;;;8.20;5.30;;;22.60;79.20;;;;;;5055372;28;20021;-81
2021/08/21 08:39:42;;;;;;;7.03;5.43;;;22.70;78.00;;;;;;5055384;28;20512;-80
2021/08/21 08:42:09;;;;;;;8.60;5.00;;;22.80;77.70;;;;;;5073149;28;20036;-81
2021/08/21 08:44:41;;;;;;;6.78;4.63;;;22.90;77.80;;;;;;5055173;28;20029;-81
2021/08/21 08:47:08;;;;;;;10.45;5.47;;;23.00;77.70;;;;;;5055302;28;20504;-81
2021/08/21 08:49:37;;;;;;;7.70;4.50;;;23.20;77.20;;;;;;5073107;28;20060;-80
2021/08/21 08:52:02;;;;;;;;;;;23.30;77.30;;;;;;5073038;28;20029;-81
2021/08/21 08:54:28;;;;;;;6.32;3.50;;;23.30;77.00;;;;;;5055172;28;20427;-81
2021/08/21 08:56:53;;;;;;;5.80;3.42;;;23.40;76.60;;;;;;5055234;28;20083;-81
2021/08/21 08:59:19;;;;;;;6.78;3.60;;;23.50;76.40;;;;;;5053639;28;20116;-81
2021/08/21 09:01:45;;;;;;;7.55;3.17;;;23.60;75.30;;;;;;5053997;28;20029;-80
2021/08/21 09:04:22;;;;;;;8.15;2.90;;;23.70;75.10;;;;;;5071812;28;20051;-80
2021/08/21 09:06:48;;;;;;;4.25;2.65;;;23.70;73.70;;;;;;5055469;28;20056;-80
2021/08/21 09:09:17;;;;;;;3.08;2.50;;;23.80;74.30;;;;;;5054251;28;20090;-81
2021/08/21 09:11:45;;;;;;;5.70;2.40;;;23.90;74.70;;;;;;5072651;28;20137;-80
2021/08/21 09:14:21;;;;;;;5.53;2.42;;;23.90;73.90;;;;;;5054320;28;20064;-80
2021/08/21 09:16:49;;;;;;;3.28;2.33;;;24.00;73.50;;;;;;5053746;28;20404;-80
2021/08/21 09:19:25;;;;;;;3.58;2.17;;;24.10;73.90;;;;;;5072378;28;20027;-80
2021/08/21 09:22:03;;;;;;;4.13;2.40;;;24.10;73.30;;;;;;5055407;28;20032;-80
2021/08/21 09:24:31;;;;;;;3.38;2.20;;;24.30;73.10;;;;;;5054718;28;20031;-80
2021/08/21 09:27:19;;;;;;;3.47;1.93;;;24.30;72.60;;;;;;5052707;28;20053;-80
2021/08/21 09:29:45;;;;;;;4.38;1.92;;;24.40;72.50;;;;;;5034773;28;20417;-81
2021/08/21 09:32:11;;;;;;;2.33;1.35;;;24.40;71.00;;;;;;5052912;28;20079;-80
2021/08/21 09:34:38;;;;;;;5.43;1.85;;;24.40;70.50;;;;;;5052583;28;20045;-80
2021/08/21 09:37:07;;;;;;;3.42;1.27;;;24.40;70.10;;;;;;5034864;28;20023;-81
2021/08/21 09:39:37;;;;;;;6.15;2.30;;;24.60;70.00;;;;;;5047259;28;20025;-81
2021/08/21 09:42:05;;;;;;;2.78;1.83;;;24.60;69.40;;;;;;5057095;28;20052;-80
2021/08/21 09:44:40;;;;;;;4.03;1.50;;;24.70;69.00;;;;;;5058151;28;20040;-80
2021/08/21 09:47:29;;;;;;;2.35;1.73;;;24.80;68.40;;;;;;5076191;28;20024;-81
2021/08/21 09:50:21;;;;;;;3.42;1.52;;;24.90;69.20;;;;;;5075794;28;20098;-81
2021/08/21 09:52:48;;;;;;;3.38;1.65;;;25.00;69.10;;;;;;5053999;28;20051;-81
2021/08/21 09:55:20;;;;;;;3.47;2.25;;;25.10;69.20;;;;;;5058191;28;20481;-81
2021/08/21 09:58:06;;;;;;;2.28;1.52;;;25.20;67.00;;;;;;5076075;28;20111;-81
2021/08/21 10:00:34;;;;;;;3.00;1.65;;;25.20;65.70;;;;;;5075832;28;20013;-81
2021/08/21 10:03:00;;;;;;;3.70;1.33;;;25.20;66.20;;;;;;5058061;28;20107;-80
2021/08/21 10:05:26;;;;;;;2.42;1.40;;;25.20;65.40;;;;;;5075822;28;20112;-81
2021/08/21 10:08:15;;;;;;;2.53;1.30;;;25.20;65.70;;;;;;5057867;28;20083;-81
2021/08/21 10:10:50;;;;;;;1.63;1.30;;;25.30;65.30;;;;;;5075430;28;20131;-81
2021/08/21 10:13:25;;;;;;;3.35;1.42;;;25.30;65.90;;;;;;5075691;28;20028;-81
2021/08/21 10:15:51;;;;;;;4.97;1.50;;;25.40;64.60;;;;;;5059262;28;20107;-81
2021/08/21 10:18:22;;;;;;;2.15;1.40;;;25.40;63.70;;;;;;5057849;28;20058;-81
2021/08/21 10:20:48;;;;;;;4.05;1.20;;;25.50;63.70;;;;;;5075544;28;20066;-80
2021/08/21 10:23:16;;;;;;;2.13;1.42;;;25.60;64.90;;;;;;5057824;28;20032;-81
2021/08/21 10:25:54;;;;;;;2.00;1.27;;;25.70;64.60;;;;;;5075629;28;20040;-80
2021/08/21 10:28:21;;;;;;;2.10;1.25;;;25.80;63.70;;;;;;5057537;28;20028;-80
2021/08/21 10:30:49;;;;;;;1.70;1.23;;;25.80;64.80;;;;;;5075217;28;20048;-80
2021/08/21 10:33:16;;;;;;;6.10;1.42;;;25.80;64.40;;;;;;5057276;28;20052;-80
2021/08/21 10:35:45;;;;;;;1.92;1.48;;;25.80;65.30;;;;;;5040872;28;20032;-80
2021/08/21 10:38:29;;;;;;;2.83;1.33;;;26.00;64.20;;;;;;5074962;28;20525;-80
2021/08/21 10:41:10;;;;;;;3.30;1.38;;;26.10;63.90;;;;;;5057250;28;20150;-80
2021/08/21 10:43:55;;;;;;;3.20;1.40;;;26.10;62.90;;;;;;5075175;28;20476;-80
2021/08/21 10:46:30;;;;;;;3.15;1.48;;;26.10;61.80;;;;;;5056756;28;20039;-80
2021/08/21 10:48:57;;;;;;;2.70;1.23;;;26.20;61.20;;;;;;5074925;28;20032;-80
2021/08/21 10:51:39;;;;;;;1.35;1.10;;;26.30;61.50;;;;;;5074521;28;20412;-80
2021/08/21 10:54:25;;;;;;;3.38;1.40;;;26.40;60.50;;;;;;5075090;28;20470;-80
2021/08/21 10:56:52;;;;;;;3.38;1.20;;;26.30;59.80;;;;;;5060580;28;20659;-80
2021/08/21 10:59:40;;;;;;;2.70;1.10;;;26.40;61.60;;;;;;5074871;28;20478;-80
2021/08/21 11:02:21;;;;;;;1.73;1.23;;;26.30;61.70;;;;;;5074519;28;20040;-81
2021/08/21 11:04:47;;;;;;;7.32;1.30;;;26.10;62.20;;;;;;5056677;28;20055;-81
2021/08/21 11:07:31;;;;;;;2.05;1.50;;;25.90;63.20;;;;;;5074791;28;20024;-81
2021/08/21 11:10:15;;;;;;;2.40;1.20;;;25.80;64.00;;;;;;5074778;28;20028;-81
2021/08/21 11:12:43;;;;;;;1.85;1.17;;;25.90;63.20;;;;;;5056522;28;20021;-81
2021/08/21 11:15:24;;;;;;;1.55;1.15;;;26.10;62.30;;;;;;5056933;28;20021;-80
2021/08/21 11:17:50;;;;;;;4.18;1.15;;;26.20;61.40;;;;;;5054601;28;20036;-81
2021/08/21 11:20:26;;;;;;;4.22;1.42;;;26.30;61.80;;;;;;5054372;28;20056;-81
2021/08/21 11:23:07;;;;;;;3.47;1.30;;;26.50;61.00;;;;;;5054418;28;20025;-81
2021/08/21 11:25:38;;;;;;;2.70;1.40;;;26.60;58.80;;;;;;5070766;28;20036;-81
2021/08/21 11:28:13;;;;;;;1.15;1.05;;;26.60;60.20;;;;;;5056586;28;20500;-81
2021/08/21 11:30:40;;;;;;;2.30;1.30;;;26.70;60.70;;;;;;5056268;28;20504;-80
2021/08/21 11:33:08;;;;;;;1.80;1.17;;;26.70;59.80;;;;;;5073895;28;20044;-81
2021/08/21 11:35:35;;;;;;;1.80;1.10;;;26.50;59.30;;;;;;5074220;28;20056;-80
2021/08/21 11:38:05;;;;;;;2.47;1.20;;;26.50;58.20;;;;;;5074102;28;20016;-80
2021/08/21 11:40:49;;;;;;;2.03;1.00;;;26.70;58.40;;;;;;5073866;28;20025;-81
2021/08/21 11:43:24;;;;;;;1.55;1.20;;;26.80;59.50;;;;;;5056007;28;20086;-81
2021/08/21 11:45:50;;;;;;;2.30;1.10;;;27.00;58.80;;;;;;5073894;28;20025;-81
2021/08/21 11:48:15;;;;;;;1.40;0.95;;;27.20;58.40;;;;;;5073812;28;20052;-81
2021/08/21 11:50:46;;;;;;;1.85;0.90;;;27.30;57.60;;;;;;5073573;28;20074;-81
2021/08/21 11:53:19;;;;;;;1.73;1.00;;;27.30;56.90;;;;;;5073720;28;20074;-81
2021/08/21 11:55:45;;;;;;;2.88;1.08;;;27.40;56.80;;;;;;5055733;28;20021;-81
2021/08/21 11:58:11;;;;;;;2.10;1.10;;;27.30;57.70;;;;;;5073766;28;20066;-81
2021/08/21 12:00:40;;;;;;;2.05;1.10;;;27.30;57.80;;;;;;5073554;28;20020;-81
2021/08/21 12:03:09;;;;;;;2.08;1.00;;;27.20;57.50;;;;;;5055071;28;20027;-80
2021/08/21 12:05:39;;;;;;;2.03;1.10;;;27.10;57.10;;;;;;5073093;28;20032;-81
2021/08/21 12:08:23;;;;;;;0.95;0.80;;;26.90;57.20;;;;;;5055531;28;20427;-81
2021/08/21 12:11:02;;;;;;;1.23;1.13;;;26.80;56.50;;;;;;5055407;28;20807;-81
2021/08/21 12:13:31;;;;;;;1.90;1.20;;;26.70;57.50;;;;;;5072403;28;20037;-81
2021/08/21 12:16:03;;;;;;;1.30;0.85;;;26.80;58.20;;;;;;5072107;28;20023;-81
2021/08/21 12:18:33;;;;;;;1.75;1.13;;;26.90;57.60;;;;;;5071995;28;20610;-80
2021/08/21 12:20:59;;;;;;;1.00;0.90;;;27.00;58.30;;;;;;5052128;28;20028;-81
2021/08/21 12:23:25;;;;;;;4.32;1.08;;;27.10;57.60;;;;;;5052239;28;20033;-81
2021/08/21 12:26:01;;;;;;;1.88;1.30;;;27.10;58.00;;;;;;5039268;28;20548;-81
2021/08/21 12:28:41;;;;;;;2.03;1.20;;;27.10;56.40;;;;;;5072413;28;20020;-81
2021/08/21 12:31:09;;;;;;;1.20;1.10;;;27.10;56.50;;;;;;5054040;28;20074;-81
2021/08/21 12:33:37;;;;;;;1.75;1.00;;;27.00;57.00;;;;;;5072013;28;20041;-80
2021/08/21 12:36:24;;;;;;;2.05;1.02;;;27.00;56.60;;;;;;5072224;28;20025;-81
2021/08/21 12:39:10;;;;;;;1.55;0.80;;;27.00;57.40;;;;;;5072700;28;20060;-81
2021/08/21 12:41:52;;;;;;;3.28;0.88;;;26.90;57.90;;;;;;5034633;28;20021;-81